createdAt,value
2024-03-26T00:00:51.709Z,55.28
2024-03-26T00:01:51.712Z,55.91
2024-03-26T00:02:51.715Z,56.06
2024-03-26T00:03:51.726Z,55.99
2024-03-26T00:04:51.747Z,55.28
2024-03-26T00:05:51.750Z,55.28
2024-03-26T00:06:51.753Z,55.44
2024-03-26T00:07:51.762Z,55.37
2024-03-26T00:08:51.804Z,55.18
2024-03-26T00:09:51.800Z,55.40
2024-03-26T00:10:51.783Z,55.41
2024-03-26T00:11:51.789Z,55.56
2024-03-26T00:12:51.788Z,55.39
2024-03-26T00:13:51.801Z,55.59
2024-03-26T00:14:51.826Z,55.38
2024-03-26T00:15:51.827Z,55.46
2024-03-26T00:16:51.835Z,55.38
2024-03-26T00:17:51.842Z,55.38
2024-03-26T00:18:51.856Z,55.13
2024-03-26T00:19:51.863Z,54.87
2024-03-26T00:20:51.886Z,54.86
2024-03-26T00:21:51.872Z,54.87
2024-03-26T00:22:51.886Z,55.02
2024-03-26T00:23:51.897Z,54.84
2024-03-26T00:24:51.888Z,55.04
2024-03-26T00:25:51.898Z,54.89
2024-03-26T00:26:51.902Z,54.67
2024-03-26T00:27:51.915Z,54.81
2024-03-26T00:28:51.948Z,54.81
2024-03-26T00:29:51.944Z,54.56
2024-03-26T00:30:51.953Z,54.56
2024-03-26T00:31:51.961Z,54.63
2024-03-26T00:32:51.972Z,54.63
2024-03-26T00:33:51.975Z,54.20
2024-03-26T00:34:51.987Z,54.36
2024-03-26T00:35:51.992Z,54.36
2024-03-26T00:36:51.998Z,54.29
2024-03-26T00:37:52.014Z,54.29
2024-03-26T00:38:52.008Z,54.28
2024-03-26T00:39:52.014Z,54.01
2024-03-26T00:40:52.043Z,53.94
2024-03-26T00:41:52.047Z,53.94
2024-03-26T00:42:52.068Z,53.94
2024-03-26T00:43:52.068Z,53.73
2024-03-26T00:44:52.079Z,54.06
2024-03-26T00:45:52.093Z,54.05
2024-03-26T00:46:52.102Z,54.05
2024-03-26T00:47:52.114Z,54.12
2024-03-26T00:48:52.112Z,53.91
2024-03-26T00:49:52.128Z,54.04
2024-03-26T00:50:52.129Z,54.27
2024-03-26T00:51:52.151Z,54.27
2024-03-26T00:52:52.140Z,54.27
2024-03-26T00:53:52.150Z,53.93
2024-03-26T00:54:52.163Z,53.89
2024-03-26T00:55:52.180Z,53.89
2024-03-26T00:56:52.215Z,53.82
2024-03-26T00:57:52.209Z,53.74
2024-03-26T00:58:52.224Z,53.60
2024-03-26T00:59:52.224Z,53.89
2024-03-26T01:00:52.245Z,53.74
2024-03-26T01:01:52.247Z,53.74
2024-03-26T01:02:52.256Z,53.89
2024-03-26T01:03:52.260Z,53.70
2024-03-26T01:04:52.277Z,53.69
2024-03-26T01:05:52.284Z,53.84
2024-03-26T01:06:52.294Z,53.85
2024-03-26T01:07:52.299Z,53.76
2024-03-26T01:08:52.308Z,54.05
2024-03-26T01:09:52.312Z,53.91
2024-03-26T01:10:52.347Z,53.98
2024-03-26T01:11:52.338Z,54.04
2024-03-26T01:12:52.349Z,53.21
2024-03-26T01:13:52.360Z,53.29
2024-03-26T01:14:52.358Z,53.55
2024-03-26T01:15:52.365Z,53.69
2024-03-26T01:16:52.366Z,53.69
2024-03-26T01:17:52.376Z,53.94
2024-03-26T01:18:52.411Z,53.88
2024-03-26T01:19:52.410Z,53.79
2024-03-26T01:20:52.408Z,53.71
2024-03-26T01:21:52.425Z,53.79
2024-03-26T01:22:52.437Z,53.71
2024-03-26T01:23:52.440Z,53.57
2024-03-26T01:24:52.481Z,53.38
2024-03-26T01:25:52.481Z,53.45
2024-03-26T01:26:52.468Z,53.45
2024-03-26T01:27:52.479Z,53.49
2024-03-26T01:28:52.486Z,53.41
2024-03-26T01:29:52.493Z,53.59
2024-03-26T01:30:52.527Z,53.44
2024-03-26T01:31:52.510Z,53.44
2024-03-26T01:32:52.513Z,53.34
2024-03-26T01:33:52.530Z,53.18
2024-03-26T01:34:52.552Z,53.18
2024-03-26T01:35:52.559Z,53.12
2024-03-26T01:36:52.567Z,53.05
2024-03-26T01:37:52.575Z,53.61
2024-03-26T01:38:52.604Z,53.61
2024-03-26T01:39:52.602Z,53.50
2024-03-26T01:40:52.607Z,53.29
2024-03-26T01:41:52.610Z,53.42
2024-03-26T01:42:52.610Z,53.28
2024-03-26T01:43:52.640Z,53.14
2024-03-26T01:44:52.634Z,53.71
2024-03-26T01:45:52.642Z,53.71
2024-03-26T01:46:52.658Z,53.71
2024-03-26T01:47:52.684Z,53.61
2024-03-26T01:48:52.684Z,53.46
2024-03-26T01:49:52.701Z,53.48
2024-03-26T01:50:52.698Z,53.55
2024-03-26T01:51:52.699Z,53.62
2024-03-26T01:52:52.751Z,53.73
2024-03-26T01:53:52.734Z,53.73
2024-03-26T01:54:52.729Z,53.83
2024-03-26T01:55:52.739Z,53.83
2024-03-26T01:56:52.741Z,53.89
2024-03-26T01:57:52.761Z,54.11
2024-03-26T01:58:52.774Z,54.05
2024-03-26T01:59:52.778Z,54.35
2024-03-26T02:00:52.788Z,54.21
2024-03-26T02:01:52.804Z,54.43
2024-03-26T02:02:52.802Z,54.31
2024-03-26T02:03:52.826Z,54.31
2024-03-26T02:04:52.826Z,54.29
2024-03-26T02:05:52.824Z,54.36
2024-03-26T02:06:52.873Z,54.36
2024-03-26T02:07:52.837Z,54.26
2024-03-26T02:08:52.848Z,54.26
2024-03-26T02:09:52.848Z,54.42
2024-03-26T02:10:52.874Z,54.35
2024-03-26T02:11:52.883Z,54.35
2024-03-26T02:12:52.891Z,54.90
2024-03-26T02:13:52.904Z,54.83
2024-03-26T02:14:52.909Z,54.97
2024-03-26T02:15:52.935Z,54.73
2024-03-26T02:16:52.931Z,54.97
2024-03-26T02:17:52.940Z,54.63
2024-03-26T02:18:52.949Z,54.49
2024-03-26T02:19:52.979Z,54.61
2024-03-26T02:20:52.982Z,54.47
2024-03-26T02:21:52.966Z,54.47
2024-03-26T02:22:52.989Z,54.63
2024-03-26T02:23:52.980Z,54.39
2024-03-26T02:24:52.982Z,53.94
2024-03-26T02:25:53.012Z,54.09
2024-03-26T02:26:53.005Z,54.02
2024-03-26T02:27:53.015Z,54.45
2024-03-26T02:28:53.029Z,54.53
2024-03-26T02:29:54.084Z,54.47
2024-03-26T02:30:53.032Z,54.39
2024-03-26T02:31:53.046Z,54.39
2024-03-26T02:32:53.052Z,54.28
2024-03-26T02:33:53.047Z,54.06
2024-03-26T02:34:53.058Z,54.45
2024-03-26T02:35:53.059Z,54.45
2024-03-26T02:36:53.077Z,54.52
2024-03-26T02:37:53.119Z,54.77
2024-03-26T02:38:53.109Z,54.71
2024-03-26T02:39:53.138Z,54.69
2024-03-26T02:40:53.141Z,54.84
2024-03-26T02:41:53.142Z,54.69
2024-03-26T02:42:53.146Z,54.29
2024-03-26T02:43:53.159Z,54.15
2024-03-26T02:44:53.153Z,54.29
2024-03-26T02:45:53.153Z,54.37
2024-03-26T02:46:53.169Z,54.21
2024-03-26T02:47:53.163Z,54.50
2024-03-26T02:48:53.178Z,54.65
2024-03-26T02:49:53.182Z,54.75
2024-03-26T02:50:53.207Z,54.67
2024-03-26T02:51:53.210Z,54.67
2024-03-26T02:52:53.222Z,54.63
2024-03-26T02:53:53.226Z,54.42
2024-03-26T02:54:53.237Z,54.40
2024-03-26T02:55:53.246Z,54.56
2024-03-26T02:56:53.255Z,54.56
2024-03-26T02:57:53.280Z,54.92
2024-03-26T02:58:53.267Z,54.84
2024-03-26T02:59:53.275Z,54.46
2024-03-26T03:00:53.284Z,53.69
2024-03-26T03:01:53.324Z,54.76
2024-03-26T03:02:53.384Z,53.91
2024-03-26T03:03:53.321Z,53.99
2024-03-26T03:04:53.330Z,53.88
2024-03-26T03:05:53.344Z,54.02
2024-03-26T03:06:53.347Z,53.79
2024-03-26T03:07:53.354Z,54.42
2024-03-26T03:08:53.356Z,54.05
2024-03-26T03:09:53.364Z,54.17
2024-03-26T03:10:53.369Z,54.89
2024-03-26T03:11:53.383Z,54.09
2024-03-26T03:12:53.377Z,53.95
2024-03-26T03:13:53.397Z,53.79
2024-03-26T03:14:53.405Z,53.60
2024-03-26T03:15:53.425Z,53.74
2024-03-26T03:16:53.449Z,54.50
2024-03-26T03:17:53.446Z,54.80
2024-03-26T03:18:53.452Z,54.88
2024-03-26T03:19:53.469Z,54.03
2024-03-26T03:20:53.484Z,54.03
2024-03-26T03:21:53.490Z,54.25
2024-03-26T03:22:53.503Z,54.57
2024-03-26T03:23:53.507Z,54.65
2024-03-26T03:24:53.498Z,54.58
2024-03-26T03:25:53.515Z,54.57
2024-03-26T03:26:53.517Z,54.57
2024-03-26T03:27:53.523Z,54.82
2024-03-26T03:28:53.537Z,54.91
2024-03-26T03:29:53.541Z,54.91
2024-03-26T03:30:53.587Z,54.92
2024-03-26T03:31:53.567Z,55.14
2024-03-26T03:32:53.569Z,54.61
2024-03-26T03:33:53.583Z,54.98
2024-03-26T03:34:53.582Z,54.90
2024-03-26T03:35:53.595Z,54.81
2024-03-26T03:36:53.588Z,54.81
2024-03-26T03:37:53.597Z,54.61
2024-03-26T03:38:53.603Z,54.76
2024-03-26T03:39:53.624Z,54.68
2024-03-26T03:40:53.631Z,54.90
2024-03-26T03:41:53.645Z,54.69
2024-03-26T03:42:53.650Z,54.55
2024-03-26T03:43:53.671Z,54.61
2024-03-26T03:44:53.687Z,54.47
2024-03-26T03:45:53.686Z,54.32
2024-03-26T03:46:53.688Z,54.39
2024-03-26T03:47:53.693Z,54.55
2024-03-26T03:48:53.696Z,54.47
2024-03-26T03:49:53.713Z,55.43
2024-03-26T03:50:53.709Z,54.61
2024-03-26T03:51:53.722Z,54.69
2024-03-26T03:52:53.746Z,54.28
2024-03-26T03:53:54.522Z,54.34
2024-03-26T03:54:53.756Z,55.12
2024-03-26T03:55:53.763Z,55.05
2024-03-26T03:56:53.771Z,54.42
2024-03-26T03:57:53.787Z,54.21
2024-03-26T03:58:53.797Z,54.22
2024-03-26T03:59:53.794Z,54.37
2024-03-26T04:00:53.808Z,54.23
2024-03-26T04:01:53.814Z,54.45
2024-03-26T04:02:53.832Z,54.35
2024-03-26T04:03:53.825Z,54.42
2024-03-26T04:04:53.841Z,54.42
2024-03-26T04:05:53.842Z,54.50
2024-03-26T04:06:53.863Z,54.16
2024-03-26T04:07:53.878Z,54.96
2024-03-26T04:08:53.880Z,55.02
2024-03-26T04:09:53.886Z,54.94
2024-03-26T04:10:53.888Z,54.24
2024-03-26T04:11:55.452Z,54.17
2024-03-26T04:12:53.909Z,55.18
2024-03-26T04:13:53.906Z,54.26
2024-03-26T04:14:53.910Z,54.05
2024-03-26T04:15:53.920Z,54.19
2024-03-26T04:16:53.988Z,54.96
2024-03-26T04:17:53.941Z,55.11
2024-03-26T04:18:53.950Z,55.15
2024-03-26T04:19:53.958Z,55.15
2024-03-26T04:20:53.971Z,54.30
2024-03-26T04:21:54.159Z,54.37
2024-03-26T04:22:53.985Z,54.30
2024-03-26T04:23:53.988Z,54.54
2024-03-26T04:24:53.997Z,55.17
2024-03-26T04:25:54.000Z,55.32
2024-03-26T04:26:54.014Z,55.33
2024-03-26T04:27:54.009Z,55.34
2024-03-26T04:28:54.021Z,55.40
2024-03-26T04:29:54.039Z,55.36
2024-03-26T04:30:54.076Z,55.28
2024-03-26T04:31:54.058Z,55.28
2024-03-26T04:32:54.062Z,55.28
2024-03-26T04:33:54.078Z,55.28
2024-03-26T04:34:54.073Z,55.02
2024-03-26T04:35:54.091Z,55.02
2024-03-26T04:36:54.101Z,55.02
2024-03-26T04:37:54.112Z,54.94
2024-03-26T04:38:54.105Z,54.94
2024-03-26T04:39:54.113Z,55.10
2024-03-26T04:40:54.124Z,55.10
2024-03-26T04:41:54.132Z,55.76
2024-03-26T04:42:54.156Z,55.62
2024-03-26T04:43:54.171Z,55.68
2024-03-26T04:44:54.194Z,55.76
2024-03-26T04:45:54.189Z,55.84
2024-03-26T04:46:54.196Z,55.75
2024-03-26T04:47:54.209Z,55.74
2024-03-26T04:48:54.216Z,55.82
2024-03-26T04:49:54.231Z,55.97
2024-03-26T04:50:54.221Z,56.28
2024-03-26T04:51:54.231Z,55.89
2024-03-26T04:52:54.227Z,56.04
2024-03-26T04:53:54.260Z,55.97
2024-03-26T04:54:54.242Z,56.39
2024-03-26T04:55:54.258Z,56.31
2024-03-26T04:56:56.159Z,56.17
2024-03-26T04:57:54.274Z,55.95
2024-03-26T04:58:54.296Z,56.09
2024-03-26T04:59:54.301Z,56.05
2024-03-26T05:00:54.307Z,55.98
2024-03-26T05:01:54.309Z,55.83
2024-03-26T05:02:54.332Z,56.13
2024-03-26T05:03:54.326Z,55.91
2024-03-26T05:04:54.326Z,56.09
2024-03-26T05:05:54.350Z,56.09
2024-03-26T05:06:54.344Z,56.09
2024-03-26T05:07:54.358Z,56.18
2024-03-26T05:08:54.379Z,56.18
2024-03-26T05:09:54.372Z,56.52
2024-03-26T05:10:54.379Z,56.44
2024-03-26T05:11:54.398Z,56.62
2024-03-26T05:12:54.415Z,56.55
2024-03-26T05:13:54.408Z,56.62
2024-03-26T05:14:54.430Z,56.77
2024-03-26T05:15:54.428Z,56.85
2024-03-26T05:16:54.428Z,56.70
2024-03-26T05:17:54.427Z,56.85
2024-03-26T05:18:54.433Z,56.70
2024-03-26T05:19:54.445Z,56.82
2024-03-26T05:20:54.497Z,56.75
2024-03-26T05:21:54.482Z,57.08
2024-03-26T05:22:54.484Z,56.92
2024-03-26T05:23:54.516Z,57.08
2024-03-26T05:24:54.498Z,57.42
2024-03-26T05:25:54.508Z,57.34
2024-03-26T05:26:54.579Z,57.43
2024-03-26T05:27:54.533Z,57.36
2024-03-26T05:28:54.599Z,57.43
2024-03-26T05:29:54.560Z,57.95
2024-03-26T05:30:54.564Z,57.71
2024-03-26T05:31:54.563Z,58.08
2024-03-26T05:32:54.610Z,58.08
2024-03-26T05:33:54.586Z,57.76
2024-03-26T05:34:54.600Z,58.48
2024-03-26T05:35:54.664Z,58.33
2024-03-26T05:36:54.619Z,58.55
2024-03-26T05:37:54.630Z,58.31
2024-03-26T05:38:54.657Z,58.47
2024-03-26T05:39:54.642Z,58.99
2024-03-26T05:40:54.656Z,58.91
2024-03-26T05:41:54.678Z,58.83
2024-03-26T05:42:54.663Z,58.59
2024-03-26T05:43:54.662Z,58.76
2024-03-26T05:44:54.711Z,59.00
2024-03-26T05:45:54.690Z,59.00
2024-03-26T05:46:54.714Z,59.10
2024-03-26T05:47:54.711Z,59.19
2024-03-26T05:48:54.729Z,59.04
2024-03-26T05:49:54.745Z,59.89
2024-03-26T05:50:54.760Z,59.81
2024-03-26T05:51:54.758Z,59.84
2024-03-26T05:52:54.779Z,59.86
2024-03-26T05:53:54.815Z,59.86
2024-03-26T05:54:54.772Z,60.27
2024-03-26T05:55:54.771Z,60.19
2024-03-26T05:56:54.849Z,60.41
2024-03-26T05:57:54.782Z,60.35
2024-03-26T05:58:54.811Z,60.43
2024-03-26T05:59:54.843Z,60.52
2024-03-26T06:00:54.816Z,60.60
2024-03-26T06:01:54.840Z,60.70
2024-03-26T06:02:54.893Z,60.61
2024-03-26T06:03:54.858Z,61.59
2024-03-26T06:04:54.850Z,61.98
2024-03-26T06:05:54.874Z,61.24
2024-03-26T06:06:54.859Z,61.58
2024-03-26T06:07:54.866Z,61.92
2024-03-26T06:08:54.880Z,61.93
2024-03-26T06:09:54.887Z,62.00
2024-03-26T06:10:54.900Z,61.85
2024-03-26T06:11:54.968Z,61.93
2024-03-26T06:12:54.944Z,61.85
2024-03-26T06:13:54.939Z,61.94
2024-03-26T06:14:54.962Z,62.03
2024-03-26T06:15:54.941Z,62.11
2024-03-26T06:16:54.952Z,61.97
2024-03-26T06:17:54.993Z,62.16
2024-03-26T06:18:54.966Z,61.98
2024-03-26T06:19:54.978Z,62.67
2024-03-26T06:20:55.024Z,62.49
2024-03-26T06:21:54.984Z,62.81
2024-03-26T06:22:55.005Z,62.73
2024-03-26T06:23:55.004Z,62.55
2024-03-26T06:24:55.013Z,63.23
2024-03-26T06:25:55.025Z,63.23
2024-03-26T06:26:55.063Z,63.38
2024-03-26T06:27:55.049Z,63.29
2024-03-26T06:28:55.052Z,63.46
2024-03-26T06:29:55.107Z,63.96
2024-03-26T06:30:55.067Z,63.78
2024-03-26T06:31:55.092Z,64.09
2024-03-26T06:32:55.167Z,64.18
2024-03-26T06:33:55.088Z,64.19
2024-03-26T06:34:55.086Z,64.42
2024-03-26T06:35:55.125Z,64.60
2024-03-26T06:36:55.138Z,64.52
2024-03-26T06:37:55.114Z,65.56
2024-03-26T06:38:55.155Z,65.28
2024-03-26T06:39:55.140Z,65.47
2024-03-26T06:40:56.941Z,65.47
2024-03-26T06:41:55.176Z,65.38
2024-03-26T06:42:55.179Z,66.37
2024-03-26T06:43:55.166Z,66.28
2024-03-26T06:44:55.216Z,66.56
2024-03-26T06:45:55.183Z,66.37
2024-03-26T06:46:55.187Z,66.57
2024-03-26T06:47:55.234Z,67.84
2024-03-26T06:48:55.202Z,68.03
2024-03-26T06:49:55.214Z,67.84
2024-03-26T06:50:55.264Z,67.74
2024-03-26T06:51:55.229Z,67.25
2024-03-26T06:52:55.245Z,67.49
2024-03-26T06:53:55.279Z,67.59
2024-03-26T06:54:55.260Z,68.48
2024-03-26T06:55:55.256Z,68.58
2024-03-26T06:56:55.318Z,68.51
2024-03-26T06:57:55.277Z,68.70
2024-03-26T06:58:55.277Z,69.55
2024-03-26T06:59:55.353Z,69.74
2024-03-26T07:00:55.289Z,69.66
2024-03-26T07:01:55.304Z,70.55
2024-03-26T07:02:55.353Z,70.74
2024-03-26T07:03:55.327Z,70.66
2024-03-26T07:04:55.322Z,70.87
2024-03-26T07:05:55.352Z,71.80
2024-03-26T07:06:55.349Z,71.62
2024-03-26T07:07:55.355Z,71.92
2024-03-26T07:08:55.454Z,71.71
2024-03-26T07:09:55.382Z,71.73
2024-03-26T07:10:55.374Z,72.79
2024-03-26T07:11:55.430Z,72.65
2024-03-26T07:12:56.327Z,72.45
2024-03-26T07:13:55.412Z,72.65
2024-03-26T07:14:55.411Z,72.76
2024-03-26T07:15:55.420Z,73.17
2024-03-26T07:16:55.444Z,73.12
2024-03-26T07:17:55.467Z,73.32
2024-03-26T07:18:55.458Z,74.09
2024-03-26T07:19:55.456Z,74.21
2024-03-26T07:20:55.495Z,74.21
2024-03-26T07:21:55.491Z,75.30
2024-03-26T07:22:55.490Z,75.54
2024-03-26T07:23:55.499Z,75.32
2024-03-26T07:24:55.496Z,75.43
2024-03-26T07:25:55.499Z,75.92
2024-03-26T07:26:55.589Z,76.14
2024-03-26T07:27:55.543Z,76.04
2024-03-26T07:28:55.547Z,76.94
2024-03-26T07:29:55.542Z,76.08
2024-03-26T07:30:55.545Z,78.40
2024-03-26T07:31:55.553Z,77.76
2024-03-26T07:32:55.613Z,77.76
2024-03-26T07:33:55.570Z,77.76
2024-03-26T07:34:55.583Z,77.55
2024-03-26T07:35:55.614Z,77.77
2024-03-26T07:36:55.625Z,77.47
2024-03-26T07:37:55.598Z,77.49
2024-03-26T07:38:55.642Z,77.49
2024-03-26T07:39:55.617Z,77.49
2024-03-26T07:40:55.644Z,78.31
2024-03-26T07:41:55.686Z,78.40
2024-03-26T07:42:55.683Z,78.40
2024-03-26T07:43:55.658Z,78.51
2024-03-26T07:44:55.675Z,78.41
2024-03-26T07:45:55.673Z,79.39
2024-03-26T07:46:55.708Z,78.63
2024-03-26T07:47:55.690Z,78.63
2024-03-26T07:48:55.701Z,78.54
2024-03-26T07:49:55.807Z,78.65
2024-03-26T07:50:55.761Z,79.03
2024-03-26T07:51:57.444Z,78.94
2024-03-26T07:52:55.742Z,78.84
2024-03-26T07:53:55.739Z,78.94
2024-03-26T07:54:55.812Z,80.16
2024-03-26T07:55:55.869Z,79.96
2024-03-26T07:56:55.786Z,80.11
2024-03-26T07:57:55.763Z,80.00
2024-03-26T07:58:55.844Z,81.52
2024-03-26T07:59:55.825Z,81.53
2024-03-26T08:00:55.779Z,81.53
2024-03-26T08:01:55.792Z,81.22
2024-03-26T08:02:55.799Z,82.30
2024-03-26T08:03:55.823Z,81.37
2024-03-26T08:04:55.804Z,81.48
2024-03-26T08:05:55.825Z,81.48
2024-03-26T08:06:55.890Z,81.25
2024-03-26T08:07:55.873Z,82.61
2024-03-26T08:08:55.852Z,81.33
2024-03-26T08:09:55.870Z,81.56
2024-03-26T08:10:55.923Z,83.05
2024-03-26T08:11:55.879Z,83.04
2024-03-26T08:12:55.882Z,83.06
2024-03-26T08:13:55.960Z,82.54
2024-03-26T08:14:55.925Z,82.31
2024-03-26T08:15:55.912Z,82.55
2024-03-26T08:16:55.909Z,82.32
2024-03-26T08:17:56.734Z,82.33
2024-03-26T08:18:55.935Z,84.20
2024-03-26T08:19:55.928Z,84.20
2024-03-26T08:20:55.979Z,83.96
2024-03-26T08:21:55.959Z,83.98
2024-03-26T08:22:55.956Z,83.98
2024-03-26T08:23:55.976Z,84.79
2024-03-26T08:24:56.873Z,85.04
2024-03-26T08:25:55.994Z,84.70
2024-03-26T08:26:55.985Z,84.58
2024-03-26T08:27:56.093Z,86.32
2024-03-26T08:28:56.000Z,85.41
2024-03-26T08:29:56.031Z,85.43
2024-03-26T08:30:55.996Z,85.18
2024-03-26T08:31:56.051Z,85.06
2024-03-26T08:32:56.122Z,86.14
2024-03-26T08:33:56.059Z,86.59
2024-03-26T08:34:56.036Z,88.01
2024-03-26T08:35:56.072Z,88.01
2024-03-26T08:36:56.054Z,86.93
2024-03-26T08:37:56.060Z,86.80
2024-03-26T08:38:56.141Z,86.56
2024-03-26T08:39:56.080Z,87.48
2024-03-26T08:40:56.085Z,86.07
2024-03-26T08:41:56.110Z,87.49
2024-03-26T08:42:56.092Z,87.49
2024-03-26T08:43:56.101Z,87.24
2024-03-26T08:44:56.103Z,87.92
2024-03-26T08:45:56.116Z,88.07
2024-03-26T08:46:56.140Z,87.74
2024-03-26T08:47:56.197Z,87.74
2024-03-26T08:48:56.158Z,87.63
2024-03-26T08:49:56.159Z,88.56
2024-03-26T08:50:56.199Z,88.56
2024-03-26T08:51:56.179Z,88.22
2024-03-26T08:52:56.181Z,89.85
2024-03-26T08:53:56.200Z,89.85
2024-03-26T08:54:56.203Z,89.21
2024-03-26T08:56:00.348Z,89.72
2024-03-26T08:56:56.210Z,89.45
2024-03-26T08:57:56.214Z,88.65
2024-03-26T08:58:56.233Z,90.16
2024-03-26T08:59:56.258Z,89.90
2024-03-26T09:00:56.256Z,90.16
2024-03-26T09:01:56.279Z,89.90
2024-03-26T09:02:56.322Z,90.66
2024-03-26T09:03:56.293Z,90.91
2024-03-26T09:04:56.312Z,91.99
2024-03-26T09:05:56.320Z,90.74
2024-03-26T09:06:56.310Z,90.49
2024-03-26T09:07:56.321Z,90.75
2024-03-26T09:08:56.324Z,89.47
2024-03-26T09:09:56.330Z,90.62
2024-03-26T09:10:56.333Z,90.62
2024-03-26T09:11:56.343Z,90.37
2024-03-26T09:12:56.349Z,92.12
2024-03-26T09:13:56.360Z,89.08
2024-03-26T09:14:56.409Z,90.37
2024-03-26T09:15:56.373Z,87.46
2024-03-26T09:16:56.387Z,89.08
2024-03-26T09:17:56.392Z,88.95
2024-03-26T09:19:01.014Z,87.59
2024-03-26T09:19:56.408Z,87.73
2024-03-26T09:20:56.431Z,88.47
2024-03-26T09:21:56.437Z,89.46
2024-03-26T09:22:56.448Z,88.41
2024-03-26T09:23:56.445Z,88.41
2024-03-26T09:24:56.432Z,91.30
2024-03-26T09:25:56.448Z,89.54
2024-03-26T09:26:56.472Z,89.93
2024-03-26T09:27:56.508Z,90.98
2024-03-26T09:28:56.486Z,90.99
2024-03-26T09:29:56.540Z,91.01
2024-03-26T09:30:56.509Z,91.70
2024-03-26T09:31:56.509Z,91.70
2024-03-26T09:32:56.556Z,91.70
2024-03-26T09:33:56.517Z,92.95
2024-03-26T09:34:56.529Z,93.08
2024-03-26T09:35:56.579Z,93.09
2024-03-26T09:36:56.538Z,93.09
2024-03-26T09:37:56.540Z,90.94
2024-03-26T09:39:06.323Z,91.47
2024-03-26T09:39:56.565Z,91.22
2024-03-26T09:40:56.568Z,92.58
2024-03-26T09:41:56.596Z,92.85
2024-03-26T09:42:56.583Z,92.58
2024-03-26T09:43:56.591Z,93.10
2024-03-26T09:45:05.226Z,94.22
2024-03-26T09:45:56.611Z,94.22
2024-03-26T09:46:56.628Z,94.50
2024-03-26T09:47:56.633Z,94.63
2024-03-26T09:48:56.622Z,92.69
2024-03-26T09:49:56.626Z,93.08
2024-03-26T09:50:56.634Z,92.68
2024-03-26T09:51:56.643Z,91.43
2024-03-26T09:52:56.653Z,92.92
2024-03-26T09:53:56.668Z,91.92
2024-03-26T09:54:56.681Z,91.92
2024-03-26T09:55:56.689Z,92.22
2024-03-26T09:56:56.701Z,93.33
2024-03-26T09:57:56.699Z,93.68
2024-03-26T09:58:56.706Z,92.01
2024-03-26T09:59:56.760Z,93.42
2024-03-26T10:00:56.730Z,93.42
2024-03-26T10:01:56.722Z,93.42
2024-03-26T10:02:56.734Z,91.34
2024-03-26T10:03:56.730Z,91.86
2024-03-26T10:04:56.752Z,93.34
2024-03-26T10:05:56.763Z,91.13
2024-03-26T10:06:56.768Z,92.89
2024-03-26T10:07:56.774Z,93.45
2024-03-26T10:08:56.811Z,93.31
2024-03-26T10:09:56.898Z,91.92
2024-03-26T10:10:56.805Z,91.92
2024-03-26T10:11:56.815Z,90.78
2024-03-26T10:12:56.816Z,92.04
2024-03-26T10:13:56.823Z,90.78
2024-03-26T10:14:56.871Z,93.45
2024-03-26T10:15:56.828Z,93.61
2024-03-26T10:16:56.840Z,93.61
2024-03-26T10:17:56.874Z,92.04
2024-03-26T10:18:56.856Z,93.31
2024-03-26T10:19:56.872Z,94.94
2024-03-26T10:20:56.892Z,93.67
2024-03-26T10:21:56.887Z,96.64
2024-03-26T10:22:56.924Z,96.51
2024-03-26T10:23:56.941Z,94.85
2024-03-26T10:24:56.911Z,94.87
2024-03-26T10:25:56.916Z,94.89
2024-03-26T10:26:56.944Z,95.29
2024-03-26T10:27:56.927Z,95.42
2024-03-26T10:28:56.942Z,95.42
2024-03-26T10:29:56.947Z,95.29
2024-03-26T10:30:56.979Z,95.65
2024-03-26T10:31:56.976Z,96.75
2024-03-26T10:32:57.032Z,96.62
2024-03-26T10:33:57.000Z,94.90
2024-03-26T10:34:57.012Z,95.03
2024-03-26T10:35:57.043Z,96.63
2024-03-26T10:36:57.027Z,96.31
2024-03-26T10:38:04.388Z,96.06
2024-03-26T10:39:02.685Z,95.76
2024-03-26T10:39:57.041Z,96.03
2024-03-26T10:40:58.534Z,94.56
2024-03-26T10:41:57.057Z,94.88
2024-03-26T10:42:57.074Z,95.00
2024-03-26T10:43:57.079Z,95.27
2024-03-26T10:44:57.084Z,95.10
2024-03-26T10:46:03.510Z,97.20
2024-03-26T10:46:57.136Z,97.34
2024-03-26T10:47:57.125Z,97.21
2024-03-26T10:49:01.460Z,97.21
2024-03-26T10:49:57.145Z,97.21
2024-03-26T10:50:57.144Z,98.17
2024-03-26T10:51:57.182Z,97.90
2024-03-26T10:52:57.155Z,98.44
2024-03-26T10:53:57.164Z,97.88
2024-03-26T10:54:57.167Z,96.64
2024-03-26T10:55:57.174Z,96.07
2024-03-26T10:56:57.205Z,98.02
2024-03-26T10:57:57.407Z,96.64
2024-03-26T10:58:57.209Z,96.36
2024-03-26T10:59:57.217Z,96.23
2024-03-26T11:00:57.231Z,93.73
2024-03-26T11:01:57.235Z,95.67
2024-03-26T11:02:57.266Z,95.40
2024-03-26T11:03:57.251Z,97.19
2024-03-26T11:04:57.258Z,97.19
2024-03-26T11:05:57.283Z,95.66
2024-03-26T11:06:57.260Z,95.38
2024-03-26T11:07:57.271Z,94.27
2024-03-26T11:08:57.275Z,94.41
2024-03-26T11:09:57.369Z,96.49
2024-03-26T11:10:57.329Z,94.97
2024-03-26T11:11:57.320Z,96.64
2024-03-26T11:12:57.343Z,95.27
2024-03-26T11:13:57.330Z,95.27
2024-03-26T11:14:57.341Z,96.98
2024-03-26T11:15:57.350Z,95.56
2024-03-26T11:16:57.358Z,95.43
2024-03-26T11:17:57.359Z,96.14
2024-03-26T11:18:57.389Z,96.14
2024-03-26T11:19:57.387Z,97.58
2024-03-26T11:20:57.368Z,99.00
2024-03-26T11:21:57.389Z,99.00
2024-03-26T11:22:57.393Z,96.23
2024-03-26T11:23:57.408Z,97.65
2024-03-26T11:24:57.445Z,95.65
2024-03-26T11:25:57.458Z,97.65
2024-03-26T11:26:57.447Z,97.65
2024-03-26T11:27:57.458Z,99.23
2024-03-26T11:28:57.465Z,97.50
2024-03-26T11:29:57.470Z,96.37
2024-03-26T11:30:57.477Z,99.74
2024-03-26T11:31:57.487Z,98.03
2024-03-26T11:32:57.498Z,97.58
2024-03-26T11:33:57.510Z,99.16
2024-03-26T11:34:57.516Z,95.43
2024-03-26T11:35:57.497Z,91.92
2024-03-26T11:36:57.523Z,89.42
2024-03-26T11:37:59.605Z,91.06
2024-03-26T11:38:57.561Z,92.49
2024-03-26T11:39:57.560Z,92.49
2024-03-26T11:40:57.573Z,92.23
2024-03-26T11:41:57.606Z,91.13
2024-03-26T11:42:57.573Z,91.26
2024-03-26T11:43:57.581Z,91.39
2024-03-26T11:44:57.594Z,91.26
2024-03-26T11:45:57.601Z,91.39
2024-03-26T11:46:57.607Z,91.46
2024-03-26T11:47:57.642Z,93.52
2024-03-26T11:48:57.619Z,93.39
2024-03-26T11:49:57.640Z,89.80
2024-03-26T11:50:57.645Z,90.83
2024-03-26T11:51:57.656Z,90.96
2024-03-26T11:52:57.680Z,92.33
2024-03-26T11:53:57.682Z,90.52
2024-03-26T11:54:57.693Z,91.81
2024-03-26T11:55:57.698Z,93.77
2024-03-26T11:56:57.703Z,95.73
2024-03-26T11:57:57.706Z,91.48
2024-03-26T11:58:57.729Z,91.35
2024-03-26T11:59:57.734Z,95.22
2024-03-26T12:00:57.738Z,91.64
2024-03-26T12:01:57.748Z,92.94
2024-03-26T12:02:57.746Z,91.04
2024-03-26T12:03:57.750Z,89.27
2024-03-26T12:04:57.765Z,92.33
2024-03-26T12:05:57.773Z,92.76
2024-03-26T12:06:57.795Z,90.17
2024-03-26T12:07:57.794Z,92.47
2024-03-26T12:08:57.799Z,90.55
2024-03-26T12:09:57.813Z,92.45
2024-03-26T12:10:57.825Z,92.61
2024-03-26T12:11:57.822Z,92.86
2024-03-26T12:12:57.827Z,93.12
2024-03-26T12:13:57.831Z,90.93
2024-03-26T12:14:57.834Z,93.02
2024-03-26T12:15:57.838Z,93.16
2024-03-26T12:16:57.846Z,92.63
2024-03-26T12:17:57.870Z,91.90
2024-03-26T12:18:57.870Z,92.04
2024-03-26T12:19:57.888Z,94.14
2024-03-26T12:20:57.899Z,92.64
2024-03-26T12:21:57.912Z,92.57
2024-03-26T12:22:57.940Z,92.70
2024-03-26T12:23:57.920Z,90.62
2024-03-26T12:24:57.935Z,92.52
2024-03-26T12:25:57.937Z,91.04
2024-03-26T12:26:57.951Z,93.05
2024-03-26T12:27:57.950Z,93.18
2024-03-26T12:28:57.961Z,90.52
2024-03-26T12:29:57.961Z,92.59
2024-03-26T12:30:57.973Z,90.41
2024-03-26T12:31:58.018Z,89.84
2024-03-26T12:32:57.992Z,91.90
2024-03-26T12:33:58.002Z,91.71
2024-03-26T12:34:58.017Z,93.32
2024-03-26T12:35:58.023Z,94.73
2024-03-26T12:36:58.039Z,93.04
2024-03-26T12:37:58.039Z,94.50
2024-03-26T12:38:58.043Z,94.50
2024-03-26T12:39:58.045Z,94.50
2024-03-26T12:40:58.052Z,94.50
2024-03-26T12:41:58.054Z,92.96
2024-03-26T12:42:58.063Z,94.48
2024-03-26T12:43:58.078Z,94.48
2024-03-26T12:44:58.088Z,94.48
2024-03-26T12:45:58.132Z,94.61
2024-03-26T12:46:58.116Z,94.48
2024-03-26T12:47:58.114Z,95.40
2024-03-26T12:48:58.134Z,93.31
2024-03-26T12:49:59.064Z,94.87
2024-03-26T12:50:58.160Z,94.87
2024-03-26T12:51:58.145Z,94.87
2024-03-26T12:52:58.160Z,94.60